createdAt,value
2018-06-23T15:11:07.171Z,25.29
2018-06-23T15:13:40.147Z,26.04
2018-06-23T15:16:09.889Z,26.22
2018-06-23T15:18:39.630Z,26.34
2018-06-23T15:21:09.346Z,26.36
2018-06-23T15:23:46.056Z,26.51
2018-06-23T15:26:23.362Z,26.45
2018-06-23T15:28:53.999Z,26.53
2018-06-23T15:31:27.315Z,26.41
2018-06-23T15:34:01.935Z,26.43
2018-06-23T15:36:32.141Z,26.41
2018-06-23T15:39:03.253Z,26.36
2018-06-23T15:41:32.821Z,26.52
2018-06-23T15:44:03.473Z,26.59
2018-06-23T15:46:34.718Z,26.44
2018-06-23T15:49:04.444Z,26.54
2018-06-23T15:51:38.928Z,26.63
2018-06-23T15:54:08.905Z,26.72
2018-06-23T15:56:38.816Z,26.52
2018-06-23T15:59:13.221Z,26.64
2018-06-23T16:01:42.974Z,26.25
2018-06-23T16:04:13.022Z,26.29
2018-06-23T16:06:43.207Z,26.21
2018-06-23T16:09:14.152Z,26.37
2018-06-23T16:11:43.751Z,26.09
2018-06-23T16:14:13.408Z,26.29
2018-06-23T16:16:45.050Z,26.19
2018-06-23T16:19:14.685Z,26.36
2018-06-23T16:21:47.197Z,26.10
2018-06-23T16:24:16.725Z,26.07
2018-06-23T16:26:46.382Z,25.96
2018-06-23T16:29:15.835Z,25.88
2018-06-23T16:31:45.646Z,25.85
2018-06-23T16:34:15.148Z,25.63
2018-06-23T16:36:44.967Z,25.58
2018-06-23T16:39:14.826Z,25.32
2018-06-23T16:41:44.366Z,25.32
2018-06-23T16:44:13.861Z,25.42
2018-06-23T16:46:43.966Z,25.54
2018-06-23T16:49:13.746Z,25.63
2018-06-23T16:51:43.336Z,25.47
2018-06-23T16:54:13.005Z,25.52
2018-06-23T16:56:43.634Z,25.42
2018-06-23T16:59:15.359Z,25.10
2018-06-23T17:01:45.295Z,24.98
2018-06-23T17:04:15.124Z,24.86
2018-06-23T17:06:45.275Z,24.62
2018-06-23T17:09:15.693Z,24.53
2018-06-23T17:11:45.303Z,24.56
2018-06-23T17:14:14.920Z,24.31
2018-06-23T17:16:45.138Z,24.29
2018-06-23T17:19:14.877Z,24.34
2018-06-23T17:21:44.554Z,24.15
2018-06-23T17:24:14.248Z,24.18
2018-06-23T17:26:44.077Z,24.06
2018-06-23T17:29:13.813Z,23.80
2018-06-23T17:31:43.498Z,24.05
2018-06-23T17:34:13.228Z,24.03
2018-06-23T17:36:42.710Z,23.62
2018-06-23T17:39:12.290Z,23.69
2018-06-23T17:41:42.103Z,23.42
2018-06-23T17:44:12.186Z,23.48
2018-06-23T17:46:41.909Z,23.48
2018-06-23T17:49:11.576Z,23.53
2018-06-23T17:51:41.020Z,23.45
2018-06-23T17:54:11.019Z,23.31
2018-06-23T17:56:41.092Z,23.22
2018-06-23T17:59:10.853Z,23.05
2018-06-23T18:01:40.489Z,23.25
2018-06-23T18:04:10.061Z,23.27
2018-06-23T18:06:39.788Z,23.21
2018-06-23T18:09:10.613Z,23.09
2018-06-23T18:11:40.450Z,22.98
2018-06-23T18:14:10.427Z,22.69
2018-06-23T18:16:40.005Z,22.79
2018-06-23T18:19:09.717Z,22.85
2018-06-23T18:21:40.764Z,22.97
2018-06-23T18:24:10.535Z,22.79
2018-06-23T18:26:40.151Z,22.85
2018-06-23T18:29:09.716Z,22.87
2018-06-23T18:31:39.897Z,22.79
2018-06-23T18:34:09.509Z,22.84
2018-06-23T18:36:39.079Z,22.84
2018-06-23T18:39:11.145Z,22.84
2018-06-23T18:41:40.857Z,22.83
2018-06-23T18:44:10.796Z,22.73
2018-06-23T18:46:40.383Z,22.69
2018-06-23T18:49:10.137Z,22.44
2018-06-23T18:51:41.701Z,22.38
2018-06-23T18:54:11.436Z,22.53
2018-06-23T18:56:41.244Z,22.32
2018-06-23T18:59:10.963Z,22.45
2018-06-23T19:01:46.784Z,22.43
2018-06-23T19:04:16.731Z,22.31
2018-06-23T19:06:46.800Z,22.37
2018-06-23T19:09:16.544Z,22.13
2018-06-23T19:11:46.028Z,22.25
2018-06-23T19:14:15.816Z,22.11
2018-06-23T19:16:45.747Z,22.11
2018-06-23T19:19:15.269Z,22.11
2018-06-23T19:21:44.907Z,22.11
2018-06-23T19:24:15.302Z,22.04
2018-06-23T19:26:45.180Z,21.93
2018-06-23T19:29:14.825Z,21.90
2018-06-23T19:31:44.630Z,21.76
2018-06-23T19:34:15.373Z,21.89
2018-06-23T19:36:45.318Z,21.74
2018-06-23T19:39:15.043Z,21.68
2018-06-23T19:41:44.864Z,21.58
2018-06-23T19:44:14.621Z,21.52
2018-06-23T19:46:44.135Z,21.45
2018-06-23T19:49:14.662Z,21.42
2018-06-23T19:51:44.214Z,21.53
2018-06-23T19:54:14.993Z,21.42
2018-06-23T19:56:45.251Z,21.33
2018-06-23T19:59:14.856Z,21.26
2018-06-23T20:01:44.587Z,21.28
2018-06-23T20:04:14.811Z,21.24
2018-06-23T20:06:44.482Z,21.26
2018-06-23T20:09:14.412Z,21.09
2018-06-23T20:11:44.092Z,21.16
2018-06-23T20:14:13.842Z,21.08
2018-06-23T20:16:43.679Z,21.02
2018-06-23T20:19:13.554Z,20.97
2018-06-23T20:21:43.183Z,20.98
2018-06-23T20:24:13.001Z,20.82
2018-06-23T20:26:42.857Z,20.81
2018-06-23T20:29:12.495Z,20.75
2018-06-23T20:31:42.554Z,20.72
2018-06-23T20:34:12.315Z,20.45
2018-06-23T20:36:42.000Z,20.57
2018-06-23T20:39:12.247Z,20.46
2018-06-23T20:41:42.013Z,20.48
2018-06-23T20:44:11.476Z,20.54
2018-06-23T20:46:41.057Z,20.52
2018-06-23T20:49:10.688Z,20.45
2018-06-23T20:51:42.176Z,20.38
2018-06-23T20:54:11.854Z,20.33
2018-06-23T20:56:41.502Z,20.30
2018-06-23T20:59:12.180Z,20.26
2018-06-23T21:01:44.084Z,20.26
2018-06-23T21:04:13.745Z,20.17
2018-06-23T21:06:43.430Z,20.15
2018-06-23T21:09:15.827Z,20.19
2018-06-23T21:11:45.684Z,20.22
2018-06-23T21:14:15.877Z,20.18
2018-06-23T21:16:46.237Z,20.13
2018-06-23T21:19:16.240Z,20.17
2018-06-23T21:21:45.970Z,20.14
2018-06-23T21:24:15.538Z,20.11
2018-06-23T21:26:45.043Z,20.01
2018-06-23T21:29:14.715Z,20.05
2018-06-23T21:31:44.228Z,19.93
2018-06-23T21:34:14.667Z,20.03
2018-06-23T21:36:44.143Z,19.94
2018-06-23T21:39:13.876Z,19.91
2018-06-23T21:41:43.902Z,19.82
2018-06-23T21:44:13.613Z,19.82
2018-06-23T21:46:43.092Z,19.78
2018-06-23T21:49:14.484Z,19.74
2018-06-23T21:51:44.415Z,19.71
2018-06-23T21:54:14.375Z,19.57
2018-06-23T21:56:43.879Z,19.52
2018-06-23T21:59:13.326Z,19.44
2018-06-23T22:01:42.848Z,19.37
2018-06-23T22:04:12.828Z,19.27
2018-06-23T22:06:42.711Z,19.08
2018-06-23T22:09:12.958Z,18.95
2018-06-23T22:11:43.051Z,18.89
2018-06-23T22:14:12.659Z,18.77
2018-06-23T22:16:42.262Z,18.72
2018-06-23T22:19:11.878Z,18.68
2018-06-23T22:21:41.471Z,18.74
2018-06-23T22:24:10.955Z,18.63
2018-06-23T22:26:40.620Z,18.60
2018-06-23T22:29:10.245Z,18.61
2018-06-23T22:31:39.945Z,18.62
2018-06-23T22:34:09.730Z,18.55
2018-06-23T22:36:39.325Z,18.63
2018-06-23T22:39:11.201Z,18.63
2018-06-23T22:41:40.679Z,18.59
2018-06-23T22:44:10.315Z,18.60
2018-06-23T22:46:39.848Z,18.63
2018-06-23T22:49:09.434Z,18.56
2018-06-23T22:51:39.135Z,18.64
2018-06-23T22:54:08.734Z,18.60
2018-06-23T22:56:38.271Z,18.61
2018-06-23T22:59:07.862Z,18.64
2018-06-23T23:01:38.242Z,18.65
2018-06-23T23:04:07.742Z,18.63
2018-06-23T23:06:37.541Z,18.58
2018-06-23T23:09:10.020Z,18.51
2018-06-23T23:11:39.560Z,18.42
2018-06-23T23:14:09.262Z,18.36
2018-06-23T23:16:38.787Z,18.41
2018-06-23T23:19:08.754Z,18.44
2018-06-23T23:21:38.429Z,18.39
2018-06-23T23:24:08.158Z,18.47
2018-06-23T23:26:37.702Z,18.53
2018-06-23T23:29:07.830Z,18.49
2018-06-23T23:31:37.394Z,18.35
2018-06-23T23:34:07.369Z,18.40
2018-06-23T23:36:36.865Z,18.32
2018-06-23T23:39:09.737Z,18.21
2018-06-23T23:41:39.393Z,18.07
2018-06-23T23:44:09.242Z,18.05
2018-06-23T23:46:38.844Z,18.03
2018-06-23T23:49:08.638Z,18.09
2018-06-23T23:51:38.229Z,18.09
2018-06-23T23:54:07.742Z,18.01
2018-06-23T23:56:37.467Z,17.87
2018-06-23T23:59:07.161Z,17.85
